sensor_id;sensor_type;location;lat;lon;timestamp;temperature;humidity
60027;DHT22;45891;53.006;6.512;2022-07-29T00:00:07;15.60;99.90
60027;DHT22;45891;53.006;6.512;2022-07-29T00:02:34;15.60;99.90
60027;DHT22;45891;53.006;6.512;2022-07-29T00:05:00;15.60;99.90
60027;DHT22;45891;53.006;6.512;2022-07-29T00:07:27;15.60;99.90
60027;DHT22;45891;53.006;6.512;2022-07-29T00:09:53;15.60;99.90
60027;DHT22;45891;53.006;6.512;2022-07-29T00:12:20;15.60;99.90
60027;DHT22;45891;53.006;6.512;2022-07-29T00:14:47;15.60;99.90
60027;DHT22;45891;53.006;6.512;2022-07-29T00:17:13;15.60;99.90
60027;DHT22;45891;53.006;6.512;2022-07-29T00:19:39;15.60;99.90
60027;DHT22;45891;53.006;6.512;2022-07-29T00:22:05;15.60;99.90
60027;DHT22;45891;53.006;6.512;2022-07-29T00:24:31;15.60;99.90
60027;DHT22;45891;53.006;6.512;2022-07-29T00:26:58;15.50;99.90
60027;DHT22;45891;53.006;6.512;2022-07-29T00:29:24;15.50;99.90
60027;DHT22;45891;53.006;6.512;2022-07-29T00:31:50;15.50;99.90
60027;DHT22;45891;53.006;6.512;2022-07-29T00:34:17;15.50;99.90
60027;DHT22;45891;53.006;6.512;2022-07-29T00:37:01;15.50;99.90
60027;DHT22;45891;53.006;6.512;2022-07-29T00:39:27;15.50;99.90
60027;DHT22;45891;53.006;6.512;2022-07-29T00:41:54;15.40;99.90
60027;DHT22;45891;53.006;6.512;2022-07-29T00:44:20;15.40;99.90
60027;DHT22;45891;53.006;6.512;2022-07-29T00:46:46;15.40;99.90
60027;DHT22;45891;53.006;6.512;2022-07-29T00:49:13;15.40;99.90
60027;DHT22;45891;53.006;6.512;2022-07-29T00:51:39;15.40;99.90
60027;DHT22;45891;53.006;6.512;2022-07-29T00:54:05;15.40;99.90
60027;DHT22;45891;53.006;6.512;2022-07-29T00:56:32;15.30;99.90
60027;DHT22;45891;53.006;6.512;2022-07-29T00:58:59;15.40;99.90
60027;DHT22;45891;53.006;6.512;2022-07-29T01:01:26;15.30;99.90
60027;DHT22;45891;53.006;6.512;2022-07-29T01:03:52;15.30;99.90
60027;DHT22;45891;53.006;6.512;2022-07-29T01:06:19;15.30;99.90
60027;DHT22;45891;53.006;6.512;2022-07-29T01:08:47;15.30;99.90
60027;DHT22;45891;53.006;6.512;2022-07-29T01:11:16;15.30;99.90
60027;DHT22;45891;53.006;6.512;2022-07-29T01:13:44;15.20;99.90
60027;DHT22;45891;53.006;6.512;2022-07-29T01:16:15;15.20;99.90
60027;DHT22;45891;53.006;6.512;2022-07-29T01:18:46;15.20;99.90
60027;DHT22;45891;53.006;6.512;2022-07-29T01:21:32;15.20;99.90
60027;DHT22;45891;53.006;6.512;2022-07-29T01:29:41;15.10;99.90
60027;DHT22;45891;53.006;6.512;2022-07-29T01:32:18;15.10;99.90
60027;DHT22;45891;53.006;6.512;2022-07-29T01:35:04;15.10;99.90
60027;DHT22;45891;53.006;6.512;2022-07-29T01:37:48;15.10;99.90
60027;DHT22;45891;53.006;6.512;2022-07-29T01:41:16;15.10;99.90
60027;DHT22;45891;53.006;6.512;2022-07-29T01:43:35;15.10;99.90
60027;DHT22;45891;53.006;6.512;2022-07-29T01:46:05;15.10;99.90
60027;DHT22;45891;53.006;6.512;2022-07-29T01:48:40;15.10;99.90
60027;DHT22;45891;53.006;6.512;2022-07-29T01:51:14;15.00;99.90
60027;DHT22;45891;53.006;6.512;2022-07-29T01:56:16;15.10;99.90
60027;DHT22;45891;53.006;6.512;2022-07-29T01:58:45;15.00;99.90
60027;DHT22;45891;53.006;6.512;2022-07-29T02:01:12;15.00;99.90
60027;DHT22;45891;53.006;6.512;2022-07-29T02:03:41;15.00;99.90
60027;DHT22;45891;53.006;6.512;2022-07-29T02:06:09;15.00;99.90
60027;DHT22;45891;53.006;6.512;2022-07-29T02:08:37;15.10;99.90
60027;DHT22;45891;53.006;6.512;2022-07-29T02:11:05;15.00;99.90
60027;DHT22;45891;53.006;6.512;2022-07-29T02:13:34;15.00;99.90
60027;DHT22;45891;53.006;6.512;2022-07-29T02:16:02;15.00;99.90
60027;DHT22;45891;53.006;6.512;2022-07-29T02:18:31;15.10;99.90
60027;DHT22;45891;53.006;6.512;2022-07-29T02:21:00;15.10;99.90
60027;DHT22;45891;53.006;6.512;2022-07-29T02:23:27;15.10;99.90
60027;DHT22;45891;53.006;6.512;2022-07-29T02:25:56;15.00;99.90
60027;DHT22;45891;53.006;6.512;2022-07-29T02:28:25;15.00;99.90
60027;DHT22;45891;53.006;6.512;2022-07-29T02:30:54;15.00;99.90
60027;DHT22;45891;53.006;6.512;2022-07-29T02:33:23;15.10;99.90
60027;DHT22;45891;53.006;6.512;2022-07-29T02:35:50;15.10;99.90
60027;DHT22;45891;53.006;6.512;2022-07-29T02:38:18;15.10;99.90
60027;DHT22;45891;53.006;6.512;2022-07-29T02:41:11;15.10;99.90
60027;DHT22;45891;53.006;6.512;2022-07-29T02:43:40;15.10;99.90
60027;DHT22;45891;53.006;6.512;2022-07-29T02:46:23;15.10;99.90
60027;DHT22;45891;53.006;6.512;2022-07-29T02:48:58;15.10;99.90
60027;DHT22;45891;53.006;6.512;2022-07-29T02:51:33;15.10;99.90
60027;DHT22;45891;53.006;6.512;2022-07-29T02:54:07;15.10;99.90
60027;DHT22;45891;53.006;6.512;2022-07-29T02:56:35;15.10;99.90
60027;DHT22;45891;53.006;6.512;2022-07-29T02:59:10;15.10;99.90
60027;DHT22;45891;53.006;6.512;2022-07-29T03:01:41;15.10;99.90
60027;DHT22;45891;53.006;6.512;2022-07-29T03:04:09;15.20;99.90
60027;DHT22;45891;53.006;6.512;2022-07-29T03:06:38;15.20;99.90
60027;DHT22;45891;53.006;6.512;2022-07-29T03:09:07;15.20;99.90
60027;DHT22;45891;53.006;6.512;2022-07-29T03:11:34;15.20;99.90
60027;DHT22;45891;53.006;6.512;2022-07-29T03:14:01;15.20;99.90
60027;DHT22;45891;53.006;6.512;2022-07-29T03:16:27;15.20;99.90
60027;DHT22;45891;53.006;6.512;2022-07-29T03:18:54;15.20;99.90
60027;DHT22;45891;53.006;6.512;2022-07-29T03:21:20;15.20;99.90
60027;DHT22;45891;53.006;6.512;2022-07-29T03:23:46;15.20;99.90
60027;DHT22;45891;53.006;6.512;2022-07-29T03:26:13;15.20;99.90
60027;DHT22;45891;53.006;6.512;2022-07-29T03:28:39;15.20;99.90
60027;DHT22;45891;53.006;6.512;2022-07-29T03:31:05;15.20;99.90
60027;DHT22;45891;53.006;6.512;2022-07-29T03:33:31;15.20;99.90
60027;DHT22;45891;53.006;6.512;2022-07-29T03:35:57;15.20;99.90
60027;DHT22;45891;53.006;6.512;2022-07-29T03:38:26;15.20;99.90
60027;DHT22;45891;53.006;6.512;2022-07-29T03:40:56;15.20;99.90
60027;DHT22;45891;53.006;6.512;2022-07-29T03:43:23;15.20;99.90
60027;DHT22;45891;53.006;6.512;2022-07-29T03:45:53;15.20;99.90
60027;DHT22;45891;53.006;6.512;2022-07-29T03:48:22;15.10;99.90
60027;DHT22;45891;53.006;6.512;2022-07-29T03:50:50;15.10;99.90
60027;DHT22;45891;53.006;6.512;2022-07-29T03:53:16;15.10;99.90
60027;DHT22;45891;53.006;6.512;2022-07-29T03:55:45;15.10;99.90
60027;DHT22;45891;53.006;6.512;2022-07-29T03:58:13;15.10;99.90
60027;DHT22;45891;53.006;6.512;2022-07-29T04:00:40;15.10;99.90
60027;DHT22;45891;53.006;6.512;2022-07-29T04:03:09;15.10;99.90
60027;DHT22;45891;53.006;6.512;2022-07-29T04:05:36;15.10;99.90
60027;DHT22;45891;53.006;6.512;2022-07-29T04:08:02;15.10;99.90
60027;DHT22;45891;53.006;6.512;2022-07-29T04:10:28;15.10;99.90
60027;DHT22;45891;53.006;6.512;2022-07-29T04:12:54;15.10;99.90
60027;DHT22;45891;53.006;6.512;2022-07-29T04:15:21;15.10;99.90
60027;DHT22;45891;53.006;6.512;2022-07-29T04:17:47;15.10;99.90
60027;DHT22;45891;53.006;6.512;2022-07-29T04:20:13;15.10;99.90
60027;DHT22;45891;53.006;6.512;2022-07-29T04:22:40;15.10;99.90
60027;DHT22;45891;53.006;6.512;2022-07-29T04:25:06;15.10;99.90
60027;DHT22;45891;53.006;6.512;2022-07-29T04:27:33;15.10;99.90
60027;DHT22;45891;53.006;6.512;2022-07-29T04:29:59;15.10;99.90
60027;DHT22;45891;53.006;6.512;2022-07-29T04:32:26;15.10;99.90
60027;DHT22;45891;53.006;6.512;2022-07-29T04:34:52;15.10;99.90
60027;DHT22;45891;53.006;6.512;2022-07-29T04:37:18;15.10;99.90
60027;DHT22;45891;53.006;6.512;2022-07-29T04:39:44;15.10;99.90
60027;DHT22;45891;53.006;6.512;2022-07-29T04:42:10;15.10;99.90
60027;DHT22;45891;53.006;6.512;2022-07-29T04:44:37;15.10;99.90
60027;DHT22;45891;53.006;6.512;2022-07-29T04:47:03;15.20;99.90
60027;DHT22;45891;53.006;6.512;2022-07-29T04:49:29;15.20;99.90
60027;DHT22;45891;53.006;6.512;2022-07-29T04:51:55;15.20;99.90
60027;DHT22;45891;53.006;6.512;2022-07-29T04:54:22;15.20;99.90
60027;DHT22;45891;53.006;6.512;2022-07-29T04:56:48;15.20;99.90
60027;DHT22;45891;53.006;6.512;2022-07-29T04:59:14;15.30;99.90
60027;DHT22;45891;53.006;6.512;2022-07-29T05:01:40;15.30;99.90
60027;DHT22;45891;53.006;6.512;2022-07-29T05:04:06;15.30;99.90
60027;DHT22;45891;53.006;6.512;2022-07-29T05:06:32;15.40;99.90
60027;DHT22;45891;53.006;6.512;2022-07-29T05:08:58;15.30;99.90
60027;DHT22;45891;53.006;6.512;2022-07-29T05:11:24;15.40;99.90
60027;DHT22;45891;53.006;6.512;2022-07-29T05:13:51;15.40;99.90
60027;DHT22;45891;53.006;6.512;2022-07-29T05:16:17;15.40;99.90
60027;DHT22;45891;53.006;6.512;2022-07-29T05:18:43;15.40;99.90
60027;DHT22;45891;53.006;6.512;2022-07-29T05:21:09;15.40;99.90
60027;DHT22;45891;53.006;6.512;2022-07-29T05:23:35;15.50;99.90
60027;DHT22;45891;53.006;6.512;2022-07-29T05:26:01;15.50;99.90
60027;DHT22;45891;53.006;6.512;2022-07-29T05:28:27;15.50;99.90
60027;DHT22;45891;53.006;6.512;2022-07-29T05:30:53;15.60;99.90
60027;DHT22;45891;53.006;6.512;2022-07-29T05:33:19;15.60;99.90
60027;DHT22;45891;53.006;6.512;2022-07-29T05:35:46;15.60;99.90
60027;DHT22;45891;53.006;6.512;2022-07-29T05:38:12;15.70;99.90
60027;DHT22;45891;53.006;6.512;2022-07-29T05:40:38;15.70;99.90
60027;DHT22;45891;53.006;6.512;2022-07-29T05:43:04;15.70;99.90
60027;DHT22;45891;53.006;6.512;2022-07-29T05:45:30;15.70;99.90
60027;DHT22;45891;53.006;6.512;2022-07-29T05:47:57;15.80;99.90
60027;DHT22;45891;53.006;6.512;2022-07-29T05:50:23;15.80;99.90
60027;DHT22;45891;53.006;6.512;2022-07-29T05:52:49;15.80;99.90
60027;DHT22;45891;53.006;6.512;2022-07-29T05:55:15;15.80;99.90
60027;DHT22;45891;53.006;6.512;2022-07-29T05:57:41;15.80;99.90
60027;DHT22;45891;53.006;6.512;2022-07-29T06:00:09;15.90;99.90
60027;DHT22;45891;53.006;6.512;2022-07-29T06:02:36;15.90;99.90
60027;DHT22;45891;53.006;6.512;2022-07-29T06:05:02;15.90;99.90
60027;DHT22;45891;53.006;6.512;2022-07-29T06:07:28;16.00;99.90
60027;DHT22;45891;53.006;6.512;2022-07-29T06:09:54;16.00;99.90
60027;DHT22;45891;53.006;6.512;2022-07-29T06:12:20;16.00;99.90
60027;DHT22;45891;53.006;6.512;2022-07-29T06:14:47;16.00;99.90
60027;DHT22;45891;53.006;6.512;2022-07-29T06:17:13;16.10;99.90
60027;DHT22;45891;53.006;6.512;2022-07-29T06:19:40;16.10;99.90
60027;DHT22;45891;53.006;6.512;2022-07-29T06:22:06;16.20;99.90
60027;DHT22;45891;53.006;6.512;2022-07-29T06:24:32;16.30;99.90
60027;DHT22;45891;53.006;6.512;2022-07-29T06:26:58;16.40;99.90
60027;DHT22;45891;53.006;6.512;2022-07-29T06:29:24;16.50;99.90
60027;DHT22;45891;53.006;6.512;2022-07-29T06:31:51;16.50;99.90
60027;DHT22;45891;53.006;6.512;2022-07-29T06:34:17;16.60;99.90
60027;DHT22;45891;53.006;6.512;2022-07-29T06:36:43;16.70;99.90
60027;DHT22;45891;53.006;6.512;2022-07-29T06:39:09;16.90;99.90
60027;DHT22;45891;53.006;6.512;2022-07-29T06:41:35;17.00;99.90
60027;DHT22;45891;53.006;6.512;2022-07-29T06:44:01;17.00;99.90
60027;DHT22;45891;53.006;6.512;2022-07-29T06:46:28;17.10;99.90
60027;DHT22;45891;53.006;6.512;2022-07-29T06:48:54;17.20;99.90
60027;DHT22;45891;53.006;6.512;2022-07-29T06:51:21;17.30;99.90
60027;DHT22;45891;53.006;6.512;2022-07-29T06:53:47;17.50;99.90
60027;DHT22;45891;53.006;6.512;2022-07-29T06:56:13;17.60;99.90
60027;DHT22;45891;53.006;6.512;2022-07-29T06:58:40;17.70;99.90
60027;DHT22;45891;53.006;6.512;2022-07-29T07:01:06;17.80;99.90
60027;DHT22;45891;53.006;6.512;2022-07-29T07:03:32;17.80;99.90
60027;DHT22;45891;53.006;6.512;2022-07-29T07:05:59;17.90;99.90
60027;DHT22;45891;53.006;6.512;2022-07-29T07:08:25;18.00;99.90
60027;DHT22;45891;53.006;6.512;2022-07-29T07:10:52;18.10;99.90
60027;DHT22;45891;53.006;6.512;2022-07-29T07:13:19;18.20;99.90
60027;DHT22;45891;53.006;6.512;2022-07-29T07:15:45;18.30;99.90
60027;DHT22;45891;53.006;6.512;2022-07-29T07:18:14;18.30;99.90
60027;DHT22;45891;53.006;6.512;2022-07-29T07:20:40;18.30;99.90
60027;DHT22;45891;53.006;6.512;2022-07-29T07:23:07;18.30;99.90
60027;DHT22;45891;53.006;6.512;2022-07-29T07:25:33;18.40;99.90
60027;DHT22;45891;53.006;6.512;2022-07-29T07:27:59;18.40;99.90
60027;DHT22;45891;53.006;6.512;2022-07-29T07:30:26;18.40;99.90
60027;DHT22;45891;53.006;6.512;2022-07-29T07:32:53;18.50;99.90
60027;DHT22;45891;53.006;6.512;2022-07-29T07:35:20;18.40;99.90
60027;DHT22;45891;53.006;6.512;2022-07-29T07:37:46;18.30;99.90
60027;DHT22;45891;53.006;6.512;2022-07-29T07:40:13;18.30;99.90
60027;DHT22;45891;53.006;6.512;2022-07-29T07:42:40;18.30;99.90
60027;DHT22;45891;53.006;6.512;2022-07-29T07:45:07;18.30;99.90
60027;DHT22;45891;53.006;6.512;2022-07-29T07:47:38;18.30;99.90
60027;DHT22;45891;53.006;6.512;2022-07-29T07:50:07;18.40;99.90
60027;DHT22;45891;53.006;6.512;2022-07-29T07:52:34;18.30;99.90
60027;DHT22;45891;53.006;6.512;2022-07-29T07:55:00;18.40;99.90
60027;DHT22;45891;53.006;6.512;2022-07-29T07:57:27;18.50;99.90
60027;DHT22;45891;53.006;6.512;2022-07-29T07:59:53;18.60;99.90
60027;DHT22;45891;53.006;6.512;2022-07-29T08:02:19;18.70;99.90
60027;DHT22;45891;53.006;6.512;2022-07-29T08:04:45;18.90;99.90
60027;DHT22;45891;53.006;6.512;2022-07-29T08:07:11;19.00;99.90
60027;DHT22;45891;53.006;6.512;2022-07-29T08:09:37;19.00;99.90
60027;DHT22;45891;53.006;6.512;2022-07-29T08:12:04;19.10;99.90
60027;DHT22;45891;53.006;6.512;2022-07-29T08:14:32;19.20;99.80
60027;DHT22;45891;53.006;6.512;2022-07-29T08:16:58;19.30;99.50
60027;DHT22;45891;53.006;6.512;2022-07-29T08:19:25;19.40;99.40
60027;DHT22;45891;53.006;6.512;2022-07-29T08:21:51;19.50;99.40
60027;DHT22;45891;53.006;6.512;2022-07-29T08:24:20;19.60;99.50
60027;DHT22;45891;53.006;6.512;2022-07-29T08:27:04;19.70;99.30
60027;DHT22;45891;53.006;6.512;2022-07-29T08:29:31;19.70;99.20
60027;DHT22;45891;53.006;6.512;2022-07-29T08:31:57;19.90;99.00
60027;DHT22;45891;53.006;6.512;2022-07-29T08:34:23;20.00;99.00
60027;DHT22;45891;53.006;6.512;2022-07-29T08:36:49;20.40;99.00
60027;DHT22;45891;53.006;6.512;2022-07-29T08:39:15;20.60;98.70
60027;DHT22;45891;53.006;6.512;2022-07-29T08:41:41;20.70;98.50
60027;DHT22;45891;53.006;6.512;2022-07-29T08:44:08;20.80;98.20
60027;DHT22;45891;53.006;6.512;2022-07-29T08:46:38;20.90;98.20
60027;DHT22;45891;53.006;6.512;2022-07-29T08:49:05;21.00;97.80
60027;DHT22;45891;53.006;6.512;2022-07-29T08:51:33;20.90;97.60
60027;DHT22;45891;53.006;6.512;2022-07-29T08:54:02;20.70;97.30
60027;DHT22;45891;53.006;6.512;2022-07-29T08:56:29;20.60;97.50
60027;DHT22;45891;53.006;6.512;2022-07-29T08:58:57;20.50;97.50
60027;DHT22;45891;53.006;6.512;2022-07-29T09:01:27;20.60;97.50
60027;DHT22;45891;53.006;6.512;2022-07-29T09:03:55;20.60;97.40
60027;DHT22;45891;53.006;6.512;2022-07-29T09:06:22;20.70;97.40
60027;DHT22;45891;53.006;6.512;2022-07-29T09:08:52;20.70;97.40
60027;DHT22;45891;53.006;6.512;2022-07-29T09:11:18;20.70;97.20
60027;DHT22;45891;53.006;6.512;2022-07-29T09:13:44;20.50;97.20
60027;DHT22;45891;53.006;6.512;2022-07-29T09:16:11;20.50;97.40
60027;DHT22;45891;53.006;6.512;2022-07-29T09:18:45;20.50;97.30
60027;DHT22;45891;53.006;6.512;2022-07-29T09:21:13;20.40;97.40
60027;DHT22;45891;53.006;6.512;2022-07-29T09:24:10;20.50;97.40
60027;DHT22;45891;53.006;6.512;2022-07-29T09:26:41;20.60;97.30
60027;DHT22;45891;53.006;6.512;2022-07-29T09:29:17;20.70;97.30
60027;DHT22;45891;53.006;6.512;2022-07-29T09:31:47;20.80;97.20
60027;DHT22;45891;53.006;6.512;2022-07-29T09:34:15;20.80;97.20
60027;DHT22;45891;53.006;6.512;2022-07-29T09:36:47;20.70;97.20
60027;DHT22;45891;53.006;6.512;2022-07-29T09:39:14;20.70;97.20
60027;DHT22;45891;53.006;6.512;2022-07-29T09:42:05;20.70;97.00
60027;DHT22;45891;53.006;6.512;2022-07-29T09:44:57;20.70;96.80
60027;DHT22;45891;53.006;6.512;2022-07-29T09:47:44;20.60;96.60
60027;DHT22;45891;53.006;6.512;2022-07-29T09:50:15;20.60;97.00
60027;DHT22;45891;53.006;6.512;2022-07-29T09:52:50;20.60;97.00
60027;DHT22;45891;53.006;6.512;2022-07-29T09:55:17;20.70;96.90
60027;DHT22;45891;53.006;6.512;2022-07-29T09:57:44;20.70;97.00
60027;DHT22;45891;53.006;6.512;2022-07-29T10:00:16;20.80;97.30
60027;DHT22;45891;53.006;6.512;2022-07-29T10:02:45;20.90;97.40
60027;DHT22;45891;53.006;6.512;2022-07-29T10:05:23;20.90;97.80
60027;DHT22;45891;53.006;6.512;2022-07-29T10:07:56;21.00;97.90
60027;DHT22;45891;53.006;6.512;2022-07-29T10:10:26;21.00;97.70
60027;DHT22;45891;53.006;6.512;2022-07-29T10:15:24;21.20;97.40
60027;DHT22;45891;53.006;6.512;2022-07-29T10:17:52;21.20;97.10
60027;DHT22;45891;53.006;6.512;2022-07-29T10:20:20;21.30;97.20
60027;DHT22;45891;53.006;6.512;2022-07-29T10:22:47;21.30;97.10
60027;DHT22;45891;53.006;6.512;2022-07-29T10:25:15;21.30;97.00
60027;DHT22;45891;53.006;6.512;2022-07-29T10:27:43;21.30;96.60
60027;DHT22;45891;53.006;6.512;2022-07-29T10:30:10;21.40;96.50
60027;DHT22;45891;53.006;6.512;2022-07-29T10:43:48;22.10;96.10
60027;DHT22;45891;53.006;6.512;2022-07-29T10:46:15;22.20;95.90
60027;DHT22;45891;53.006;6.512;2022-07-29T10:49:04;22.30;95.60
60027;DHT22;45891;53.006;6.512;2022-07-29T10:54:17;22.50;95.40
60027;DHT22;45891;53.006;6.512;2022-07-29T10:56:44;22.70;95.30
60027;DHT22;45891;53.006;6.512;2022-07-29T11:01:51;23.10;94.50
60027;DHT22;45891;53.006;6.512;2022-07-29T11:07:11;23.80;94.10
60027;DHT22;45891;53.006;6.512;2022-07-29T11:09:38;24.10;94.00
60027;DHT22;45891;53.006;6.512;2022-07-29T11:15:02;24.70;93.20
60027;DHT22;45891;53.006;6.512;2022-07-29T11:17:28;24.90;93.00
60027;DHT22;45891;53.006;6.512;2022-07-29T11:22:59;25.60;92.10
60027;DHT22;45891;53.006;6.512;2022-07-29T11:25:25;26.10;92.20
60027;DHT22;45891;53.006;6.512;2022-07-29T11:27:54;26.50;91.40
60027;DHT22;45891;53.006;6.512;2022-07-29T11:30:20;26.50;90.30
60027;DHT22;45891;53.006;6.512;2022-07-29T11:32:46;26.40;89.20
60027;DHT22;45891;53.006;6.512;2022-07-29T11:35:18;26.30;88.00
60027;DHT22;45891;53.006;6.512;2022-07-29T11:37:47;26.20;86.90
60027;DHT22;45891;53.006;6.512;2022-07-29T11:40:14;26.20;86.00
60027;DHT22;45891;53.006;6.512;2022-07-29T11:42:44;26.10;85.80
60027;DHT22;45891;53.006;6.512;2022-07-29T11:45:12;26.10;85.40
60027;DHT22;45891;53.006;6.512;2022-07-29T11:47:52;26.20;85.60
60027;DHT22;45891;53.006;6.512;2022-07-29T11:50:37;26.20;84.70
60027;DHT22;45891;53.006;6.512;2022-07-29T11:53:10;26.20;83.70
60027;DHT22;45891;53.006;6.512;2022-07-29T11:55:39;26.20;84.00
60027;DHT22;45891;53.006;6.512;2022-07-29T11:58:06;26.30;84.90
60027;DHT22;45891;53.006;6.512;2022-07-29T12:00:40;26.30;83.40
60027;DHT22;45891;53.006;6.512;2022-07-29T12:03:10;26.40;83.20
60027;DHT22;45891;53.006;6.512;2022-07-29T12:05:42;26.50;82.20
60027;DHT22;45891;53.006;6.512;2022-07-29T12:08:19;26.50;82.30
60027;DHT22;45891;53.006;6.512;2022-07-29T12:10:46;26.60;82.50
60027;DHT22;45891;53.006;6.512;2022-07-29T12:13:14;26.80;82.20
60027;DHT22;45891;53.006;6.512;2022-07-29T12:15:41;27.00;82.10
60027;DHT22;45891;53.006;6.512;2022-07-29T12:18:19;27.20;81.40
60027;DHT22;45891;53.006;6.512;2022-07-29T12:20:49;27.70;82.80
60027;DHT22;45891;53.006;6.512;2022-07-29T12:23:22;28.20;81.90
60027;DHT22;45891;53.006;6.512;2022-07-29T12:25:48;28.40;79.60
60027;DHT22;45891;53.006;6.512;2022-07-29T12:28:15;28.30;77.90
60027;DHT22;45891;53.006;6.512;2022-07-29T12:30:46;28.20;77.00
60027;DHT22;45891;53.006;6.512;2022-07-29T12:35:45;28.40;76.70
60027;DHT22;45891;53.006;6.512;2022-07-29T12:38:13;28.50;75.80
60027;DHT22;45891;53.006;6.512;2022-07-29T12:40:39;28.80;74.60
60027;DHT22;45891;53.006;6.512;2022-07-29T12:43:11;28.90;72.70
60027;DHT22;45891;53.006;6.512;2022-07-29T12:45:40;29.10;72.30
60027;DHT22;45891;53.006;6.512;2022-07-29T12:48:07;29.20;71.10
60027;DHT22;45891;53.006;6.512;2022-07-29T12:50:51;29.20;70.40
60027;DHT22;45891;53.006;6.512;2022-07-29T12:53:18;29.10;70.10
60027;DHT22;45891;53.006;6.512;2022-07-29T12:55:47;29.10;70.20
60027;DHT22;45891;53.006;6.512;2022-07-29T12:58:33;29.30;69.00
60027;DHT22;45891;53.006;6.512;2022-07-29T13:11:38;31.70;64.40
60027;DHT22;45891;53.006;6.512;2022-07-29T13:14:06;32.20;62.40
60027;DHT22;45891;53.006;6.512;2022-07-29T13:16:32;32.40;60.90
60027;DHT22;45891;53.006;6.512;2022-07-29T13:19:11;32.60;62.70
60027;DHT22;45891;53.006;6.512;2022-07-29T13:21:38;33.10;60.00
60027;DHT22;45891;53.006;6.512;2022-07-29T13:24:06;33.40;59.50
60027;DHT22;45891;53.006;6.512;2022-07-29T13:26:33;33.60;57.20
60027;DHT22;45891;53.006;6.512;2022-07-29T13:28:59;33.80;56.60
60027;DHT22;45891;53.006;6.512;2022-07-29T13:31:25;33.70;55.80
60027;DHT22;45891;53.006;6.512;2022-07-29T13:33:51;33.80;55.10
60027;DHT22;45891;53.006;6.512;2022-07-29T13:36:18;34.00;54.60
60027;DHT22;45891;53.006;6.512;2022-07-29T13:38:44;34.10;52.20
60027;DHT22;45891;53.006;6.512;2022-07-29T13:41:10;34.10;53.00
60027;DHT22;45891;53.006;6.512;2022-07-29T13:43:36;34.30;52.50
60027;DHT22;45891;53.006;6.512;2022-07-29T13:46:02;34.40;53.20
60027;DHT22;45891;53.006;6.512;2022-07-29T13:48:28;34.70;52.60
60027;DHT22;45891;53.006;6.512;2022-07-29T13:50:54;35.10;51.80
60027;DHT22;45891;53.006;6.512;2022-07-29T13:53:20;35.20;50.50
60027;DHT22;45891;53.006;6.512;2022-07-29T13:55:46;35.60;50.10
60027;DHT22;45891;53.006;6.512;2022-07-29T13:58:12;35.90;49.00
60027;DHT22;45891;53.006;6.512;2022-07-29T14:00:38;35.70;48.50
60027;DHT22;45891;53.006;6.512;2022-07-29T14:03:05;35.30;47.90
60027;DHT22;45891;53.006;6.512;2022-07-29T14:05:32;35.20;48.50
60027;DHT22;45891;53.006;6.512;2022-07-29T14:07:58;35.40;48.30
60027;DHT22;45891;53.006;6.512;2022-07-29T14:10:24;35.50;48.10
60027;DHT22;45891;53.006;6.512;2022-07-29T14:12:50;35.60;46.70
60027;DHT22;45891;53.006;6.512;2022-07-29T14:15:16;35.80;47.10
60027;DHT22;45891;53.006;6.512;2022-07-29T14:17:43;35.80;47.00
60027;DHT22;45891;53.006;6.512;2022-07-29T14:20:09;36.00;47.10
60027;DHT22;45891;53.006;6.512;2022-07-29T14:22:35;35.70;46.80
60027;DHT22;45891;53.006;6.512;2022-07-29T14:25:01;35.50;47.00
60027;DHT22;45891;53.006;6.512;2022-07-29T14:27:27;35.70;47.00
60027;DHT22;45891;53.006;6.512;2022-07-29T14:29:54;35.80;47.20
60027;DHT22;45891;53.006;6.512;2022-07-29T14:32:20;36.00;46.90
60027;DHT22;45891;53.006;6.512;2022-07-29T14:34:46;35.90;46.80
60027;DHT22;45891;53.006;6.512;2022-07-29T14:37:12;35.90;47.10
60027;DHT22;45891;53.006;6.512;2022-07-29T14:39:38;35.90;47.20
60027;DHT22;45891;53.006;6.512;2022-07-29T14:42:04;35.90;47.10
60027;DHT22;45891;53.006;6.512;2022-07-29T14:44:30;35.90;47.00
60027;DHT22;45891;53.006;6.512;2022-07-29T14:46:58;35.50;46.70
60027;DHT22;45891;53.006;6.512;2022-07-29T14:49:28;35.60;47.10
60027;DHT22;45891;53.006;6.512;2022-07-29T14:51:54;35.70;47.40
60027;DHT22;45891;53.006;6.512;2022-07-29T14:54:20;35.60;46.60
60027;DHT22;45891;53.006;6.512;2022-07-29T14:56:46;35.40;46.50
60027;DHT22;45891;53.006;6.512;2022-07-29T14:59:15;35.40;46.10
60027;DHT22;45891;53.006;6.512;2022-07-29T15:01:41;35.40;46.40
60027;DHT22;45891;53.006;6.512;2022-07-29T15:04:07;35.30;46.00
60027;DHT22;45891;53.006;6.512;2022-07-29T15:06:34;35.30;46.30
60027;DHT22;45891;53.006;6.512;2022-07-29T15:09:00;35.30;45.50
60027;DHT22;45891;53.006;6.512;2022-07-29T15:11:26;35.10;46.00
60027;DHT22;45891;53.006;6.512;2022-07-29T15:13:52;34.70;45.50
60027;DHT22;45891;53.006;6.512;2022-07-29T15:16:18;34.60;45.50
60027;DHT22;45891;53.006;6.512;2022-07-29T15:18:44;34.70;45.50
60027;DHT22;45891;53.006;6.512;2022-07-29T15:21:10;34.90;45.70
60027;DHT22;45891;53.006;6.512;2022-07-29T15:23:37;35.00;44.80
60027;DHT22;45891;53.006;6.512;2022-07-29T15:26:03;35.10;44.80
60027;DHT22;45891;53.006;6.512;2022-07-29T15:28:30;35.00;45.00
60027;DHT22;45891;53.006;6.512;2022-07-29T15:30:56;34.90;44.50
60027;DHT22;45891;53.006;6.512;2022-07-29T15:33:22;34.80;44.70
60027;DHT22;45891;53.006;6.512;2022-07-29T15:35:49;34.70;44.30
60027;DHT22;45891;53.006;6.512;2022-07-29T15:38:15;34.50;44.90
60027;DHT22;45891;53.006;6.512;2022-07-29T15:40:42;34.40;44.80
60027;DHT22;45891;53.006;6.512;2022-07-29T15:43:09;34.40;45.80
60027;DHT22;45891;53.006;6.512;2022-07-29T15:45:39;34.30;45.30
60027;DHT22;45891;53.006;6.512;2022-07-29T15:48:07;34.40;45.20
60027;DHT22;45891;53.006;6.512;2022-07-29T15:50:33;34.50;45.50
60027;DHT22;45891;53.006;6.512;2022-07-29T15:52:59;34.60;44.90
60027;DHT22;45891;53.006;6.512;2022-07-29T15:55:25;34.70;44.80
60027;DHT22;45891;53.006;6.512;2022-07-29T15:57:52;34.80;44.90
60027;DHT22;45891;53.006;6.512;2022-07-29T16:00:18;34.90;44.80
60027;DHT22;45891;53.006;6.512;2022-07-29T16:02:44;34.80;44.90
60027;DHT22;45891;53.006;6.512;2022-07-29T16:05:10;34.40;44.70
60027;DHT22;45891;53.006;6.512;2022-07-29T16:07:36;34.30;46.00
60027;DHT22;45891;53.006;6.512;2022-07-29T16:10:03;34.30;45.20
60027;DHT22;45891;53.006;6.512;2022-07-29T16:12:29;34.40;45.30
60027;DHT22;45891;53.006;6.512;2022-07-29T16:14:55;34.30;44.90
60027;DHT22;45891;53.006;6.512;2022-07-29T16:17:21;34.00;44.20
60027;DHT22;45891;53.006;6.512;2022-07-29T16:19:48;33.60;45.80
60027;DHT22;45891;53.006;6.512;2022-07-29T16:22:14;33.30;46.10
60027;DHT22;45891;53.006;6.512;2022-07-29T16:24:40;33.20;46.20